Greggton, Texas
Current Conditions -  °F | °C
As of 4:53 PM on Friday 31 Oct 2014 (Local Time) from KGGG Reporting Station
Few Clouds Few Clouds  
Wind Chill: 66°   Ceiling: Unl
Heat Index: 66°   Visibility: 10mi
Dew Point: 43°   Wind: 13mph
Humidity: 43%   Direction: 330°NNW
Pressure: 30.22"   Gusts: 20mph
Location:  32.5893°N, 94.7503°W
Report Text: KGGG 312153Z 33011G17KT 10SM FEW050 19/06 A3022 RMK AO2 SLP232 T01890061
Loading
Personal Weather Stations






























Interactive Weather Map
Tropical Storm Tracking
New forecast layout! Learn more

10-Day Weather Forecast

Advertisements
Track Severe Weather on mobile